sensor_id;sensor_type;location;lat;lon;timestamp;temperature;humidity
3550;DHT22;45572;48.804;8.330;2023-02-19T00:01:36;11.30;90.30
3550;DHT22;45572;48.804;8.330;2023-02-19T00:04:06;11.30;90.50
3550;DHT22;45572;48.804;8.330;2023-02-19T00:06:34;11.40;90.80
3550;DHT22;45572;48.804;8.330;2023-02-19T00:09:04;11.30;91.10
3550;DHT22;45572;48.804;8.330;2023-02-19T00:11:33;11.20;91.20
3550;DHT22;45572;48.804;8.330;2023-02-19T00:14:01;11.00;92.10
3550;DHT22;45572;48.804;8.330;2023-02-19T00:16:32;11.00;92.80
3550;DHT22;45572;48.804;8.330;2023-02-19T00:19:03;11.00;93.00
3550;DHT22;45572;48.804;8.330;2023-02-19T00:21:31;10.90;93.70
3550;DHT22;45572;48.804;8.330;2023-02-19T00:24:01;11.00;93.80
3550;DHT22;45572;48.804;8.330;2023-02-19T00:26:29;11.10;93.80
3550;DHT22;45572;48.804;8.330;2023-02-19T00:28:57;11.10;93.60
3550;DHT22;45572;48.804;8.330;2023-02-19T00:31:28;11.00;93.70
3550;DHT22;45572;48.804;8.330;2023-02-19T00:34:03;11.00;93.80
3550;DHT22;45572;48.804;8.330;2023-02-19T00:36:32;11.00;93.80
3550;DHT22;45572;48.804;8.330;2023-02-19T00:39:01;11.00;93.80
3550;DHT22;45572;48.804;8.330;2023-02-19T00:41:29;11.10;93.60
3550;DHT22;45572;48.804;8.330;2023-02-19T00:43:58;11.10;93.50
3550;DHT22;45572;48.804;8.330;2023-02-19T00:46:27;11.10;93.40
3550;DHT22;45572;48.804;8.330;2023-02-19T00:48:56;10.90;93.80
3550;DHT22;45572;48.804;8.330;2023-02-19T00:51:28;10.80;94.40
3550;DHT22;45572;48.804;8.330;2023-02-19T00:53:57;10.70;94.50
3550;DHT22;45572;48.804;8.330;2023-02-19T00:56:26;10.70;94.60
3550;DHT22;45572;48.804;8.330;2023-02-19T00:58:54;10.80;94.80
3550;DHT22;45572;48.804;8.330;2023-02-19T01:01:22;10.70;94.90
3550;DHT22;45572;48.804;8.330;2023-02-19T01:03:50;10.70;94.70
3550;DHT22;45572;48.804;8.330;2023-02-19T01:06:19;10.60;94.60
3550;DHT22;45572;48.804;8.330;2023-02-19T01:08:49;10.50;94.80
3550;DHT22;45572;48.804;8.330;2023-02-19T01:11:17;10.50;94.90
3550;DHT22;45572;48.804;8.330;2023-02-19T01:13:45;10.30;94.80
3550;DHT22;45572;48.804;8.330;2023-02-19T01:16:15;10.30;95.30
3550;DHT22;45572;48.804;8.330;2023-02-19T01:18:44;10.30;95.50
3550;DHT22;45572;48.804;8.330;2023-02-19T01:21:14;10.30;95.50
3550;DHT22;45572;48.804;8.330;2023-02-19T01:23:42;10.30;95.50
3550;DHT22;45572;48.804;8.330;2023-02-19T01:26:13;10.20;95.60
3550;DHT22;45572;48.804;8.330;2023-02-19T01:28:42;10.30;96.10
3550;DHT22;45572;48.804;8.330;2023-02-19T01:31:12;10.30;96.30
3550;DHT22;45572;48.804;8.330;2023-02-19T01:33:43;10.30;96.10
3550;DHT22;45572;48.804;8.330;2023-02-19T01:36:12;10.30;95.90
3550;DHT22;45572;48.804;8.330;2023-02-19T01:38:40;10.30;96.20
3550;DHT22;45572;48.804;8.330;2023-02-19T01:41:10;10.30;96.30
3550;DHT22;45572;48.804;8.330;2023-02-19T01:46:35;10.30;96.40
3550;DHT22;45572;48.804;8.330;2023-02-19T01:49:06;10.20;96.60
3550;DHT22;45572;48.804;8.330;2023-02-19T01:51:38;10.10;96.80
3550;DHT22;45572;48.804;8.330;2023-02-19T01:54:09;10.20;96.80
3550;DHT22;45572;48.804;8.330;2023-02-19T01:56:38;10.20;96.80
3550;DHT22;45572;48.804;8.330;2023-02-19T01:59:08;10.10;96.80
3550;DHT22;45572;48.804;8.330;2023-02-19T02:01:38;10.10;96.80
3550;DHT22;45572;48.804;8.330;2023-02-19T02:04:08;10.10;96.80
3550;DHT22;45572;48.804;8.330;2023-02-19T02:06:41;10.20;96.80
3550;DHT22;45572;48.804;8.330;2023-02-19T02:09:12;10.10;96.80
3550;DHT22;45572;48.804;8.330;2023-02-19T02:11:54;10.00;96.80
3550;DHT22;45572;48.804;8.330;2023-02-19T02:14:26;10.10;96.80
3550;DHT22;45572;48.804;8.330;2023-02-19T02:17:01;10.10;96.80
3550;DHT22;45572;48.804;8.330;2023-02-19T02:19:52;10.00;96.80
3550;DHT22;45572;48.804;8.330;2023-02-19T02:22:26;9.90;96.80
3550;DHT22;45572;48.804;8.330;2023-02-19T02:25:10;10.00;96.80
3550;DHT22;45572;48.804;8.330;2023-02-19T02:27:52;10.00;96.80
3550;DHT22;45572;48.804;8.330;2023-02-19T02:30:32;10.10;96.80
3550;DHT22;45572;48.804;8.330;2023-02-19T02:33:06;10.10;96.80
3550;DHT22;45572;48.804;8.330;2023-02-19T02:35:41;10.00;96.80
3550;DHT22;45572;48.804;8.330;2023-02-19T02:38:11;10.00;96.80
3550;DHT22;45572;48.804;8.330;2023-02-19T02:40:42;10.00;96.80
3550;DHT22;45572;48.804;8.330;2023-02-19T02:43:12;9.90;96.80
3550;DHT22;45572;48.804;8.330;2023-02-19T02:45:41;9.90;96.80
3550;DHT22;45572;48.804;8.330;2023-02-19T02:48:33;9.90;96.80
3550;DHT22;45572;48.804;8.330;2023-02-19T02:51:08;9.90;96.80
3550;DHT22;45572;48.804;8.330;2023-02-19T02:53:45;9.90;96.80
3550;DHT22;45572;48.804;8.330;2023-02-19T02:56:29;9.90;96.80
3550;DHT22;45572;48.804;8.330;2023-02-19T02:59:00;10.00;96.80
3550;DHT22;45572;48.804;8.330;2023-02-19T03:01:33;9.90;96.80
3550;DHT22;45572;48.804;8.330;2023-02-19T03:04:24;9.90;96.80
3550;DHT22;45572;48.804;8.330;2023-02-19T03:06:54;9.90;96.80
3550;DHT22;45572;48.804;8.330;2023-02-19T03:09:27;9.90;96.80
3550;DHT22;45572;48.804;8.330;2023-02-19T03:12:00;9.90;96.80
3550;DHT22;45572;48.804;8.330;2023-02-19T03:14:47;9.80;96.80
3550;DHT22;45572;48.804;8.330;2023-02-19T03:17:35;9.80;96.80
3550;DHT22;45572;48.804;8.330;2023-02-19T03:20:21;9.80;96.80
3550;DHT22;45572;48.804;8.330;2023-02-19T03:22:52;9.80;96.80
3550;DHT22;45572;48.804;8.330;2023-02-19T03:25:24;9.80;96.80
3550;DHT22;45572;48.804;8.330;2023-02-19T03:28:08;9.80;96.80
3550;DHT22;45572;48.804;8.330;2023-02-19T03:30:40;9.80;96.80
3550;DHT22;45572;48.804;8.330;2023-02-19T03:33:12;9.90;96.80
3550;DHT22;45572;48.804;8.330;2023-02-19T03:35:45;9.90;96.80
3550;DHT22;45572;48.804;8.330;2023-02-19T03:38:16;9.90;96.80
3550;DHT22;45572;48.804;8.330;2023-02-19T03:40:53;9.80;96.80
3550;DHT22;45572;48.804;8.330;2023-02-19T03:43:30;9.90;96.80
3550;DHT22;45572;48.804;8.330;2023-02-19T03:46:06;9.80;96.80
3550;DHT22;45572;48.804;8.330;2023-02-19T03:48:42;9.90;96.80
3550;DHT22;45572;48.804;8.330;2023-02-19T03:51:23;9.80;96.80
3550;DHT22;45572;48.804;8.330;2023-02-19T03:54:01;9.80;96.80
3550;DHT22;45572;48.804;8.330;2023-02-19T03:56:37;9.70;96.80
3550;DHT22;45572;48.804;8.330;2023-02-19T03:59:09;9.80;96.80
3550;DHT22;45572;48.804;8.330;2023-02-19T04:01:41;9.70;96.80
3550;DHT22;45572;48.804;8.330;2023-02-19T04:04:16;9.70;96.80
3550;DHT22;45572;48.804;8.330;2023-02-19T04:06:51;9.80;96.80
3550;DHT22;45572;48.804;8.330;2023-02-19T04:09:20;9.80;96.80
3550;DHT22;45572;48.804;8.330;2023-02-19T04:11:57;9.90;96.80
3550;DHT22;45572;48.804;8.330;2023-02-19T04:14:27;10.00;96.80
3550;DHT22;45572;48.804;8.330;2023-02-19T04:16:59;10.10;96.80
3550;DHT22;45572;48.804;8.330;2023-02-19T04:19:32;10.10;96.70
3550;DHT22;45572;48.804;8.330;2023-02-19T04:22:04;10.20;96.60
3550;DHT22;45572;48.804;8.330;2023-02-19T04:24:35;10.20;96.50
3550;DHT22;45572;48.804;8.330;2023-02-19T04:27:04;10.00;96.50
3550;DHT22;45572;48.804;8.330;2023-02-19T04:29:32;10.00;96.80
3550;DHT22;45572;48.804;8.330;2023-02-19T04:32:01;10.00;96.80
3550;DHT22;45572;48.804;8.330;2023-02-19T04:34:30;9.90;96.80
3550;DHT22;45572;48.804;8.330;2023-02-19T04:36:58;9.90;96.80
3550;DHT22;45572;48.804;8.330;2023-02-19T04:39:26;9.90;96.80
3550;DHT22;45572;48.804;8.330;2023-02-19T04:41:53;9.90;96.80
3550;DHT22;45572;48.804;8.330;2023-02-19T04:44:21;9.90;96.80
3550;DHT22;45572;48.804;8.330;2023-02-19T04:46:49;9.90;96.80
3550;DHT22;45572;48.804;8.330;2023-02-19T04:49:17;9.90;96.80
3550;DHT22;45572;48.804;8.330;2023-02-19T04:51:46;9.90;96.80
3550;DHT22;45572;48.804;8.330;2023-02-19T04:54:13;9.90;96.80
3550;DHT22;45572;48.804;8.330;2023-02-19T04:56:41;9.90;96.80
3550;DHT22;45572;48.804;8.330;2023-02-19T04:59:09;9.80;96.80
3550;DHT22;45572;48.804;8.330;2023-02-19T05:01:37;9.80;96.80
3550;DHT22;45572;48.804;8.330;2023-02-19T05:04:04;9.80;96.80
3550;DHT22;45572;48.804;8.330;2023-02-19T05:06:32;9.80;96.80
3550;DHT22;45572;48.804;8.330;2023-02-19T05:09:03;9.80;96.80
3550;DHT22;45572;48.804;8.330;2023-02-19T05:11:31;9.70;96.80
3550;DHT22;45572;48.804;8.330;2023-02-19T05:13:59;9.70;96.80
3550;DHT22;45572;48.804;8.330;2023-02-19T05:16:26;9.70;96.80
3550;DHT22;45572;48.804;8.330;2023-02-19T05:18:54;9.70;96.80
3550;DHT22;45572;48.804;8.330;2023-02-19T05:21:22;9.60;96.80
3550;DHT22;45572;48.804;8.330;2023-02-19T05:23:50;9.60;96.80
3550;DHT22;45572;48.804;8.330;2023-02-19T05:26:21;9.60;96.80
3550;DHT22;45572;48.804;8.330;2023-02-19T05:28:51;9.60;96.80
3550;DHT22;45572;48.804;8.330;2023-02-19T05:31:19;9.60;96.80
3550;DHT22;45572;48.804;8.330;2023-02-19T05:33:47;9.50;96.80
3550;DHT22;45572;48.804;8.330;2023-02-19T05:36:18;9.40;96.80
3550;DHT22;45572;48.804;8.330;2023-02-19T05:38:46;9.40;96.80
3550;DHT22;45572;48.804;8.330;2023-02-19T05:41:16;9.40;96.80
3550;DHT22;45572;48.804;8.330;2023-02-19T05:43:47;9.50;96.80
3550;DHT22;45572;48.804;8.330;2023-02-19T05:46:17;9.40;96.80
3550;DHT22;45572;48.804;8.330;2023-02-19T05:48:46;9.40;96.70
3550;DHT22;45572;48.804;8.330;2023-02-19T05:51:15;9.40;96.60
3550;DHT22;45572;48.804;8.330;2023-02-19T05:53:44;9.40;96.50
3550;DHT22;45572;48.804;8.330;2023-02-19T05:56:23;9.40;96.70
3550;DHT22;45572;48.804;8.330;2023-02-19T05:58:53;9.40;96.80
3550;DHT22;45572;48.804;8.330;2023-02-19T06:01:23;9.40;96.80
3550;DHT22;45572;48.804;8.330;2023-02-19T06:03:51;9.40;96.80
3550;DHT22;45572;48.804;8.330;2023-02-19T06:06:23;9.40;96.80
3550;DHT22;45572;48.804;8.330;2023-02-19T06:08:51;9.40;96.80
3550;DHT22;45572;48.804;8.330;2023-02-19T06:11:19;9.40;96.80
3550;DHT22;45572;48.804;8.330;2023-02-19T06:13:47;9.40;96.80
3550;DHT22;45572;48.804;8.330;2023-02-19T06:16:17;9.40;96.70
3550;DHT22;45572;48.804;8.330;2023-02-19T06:18:45;9.40;96.60
3550;DHT22;45572;48.804;8.330;2023-02-19T06:21:15;9.50;96.70
3550;DHT22;45572;48.804;8.330;2023-02-19T06:23:43;9.50;96.40
3550;DHT22;45572;48.804;8.330;2023-02-19T06:26:13;9.50;96.20
3550;DHT22;45572;48.804;8.330;2023-02-19T06:28:44;9.60;95.80
3550;DHT22;45572;48.804;8.330;2023-02-19T06:31:12;9.50;95.70
3550;DHT22;45572;48.804;8.330;2023-02-19T06:33:42;9.50;95.70
3550;DHT22;45572;48.804;8.330;2023-02-19T06:36:12;9.50;95.90
3550;DHT22;45572;48.804;8.330;2023-02-19T06:38:40;9.60;95.80
3550;DHT22;45572;48.804;8.330;2023-02-19T06:41:10;9.60;95.30
3550;DHT22;45572;48.804;8.330;2023-02-19T06:43:39;9.60;95.00
3550;DHT22;45572;48.804;8.330;2023-02-19T06:46:07;9.60;94.70
3550;DHT22;45572;48.804;8.330;2023-02-19T06:48:35;9.60;94.30
3550;DHT22;45572;48.804;8.330;2023-02-19T06:51:06;9.70;94.50
3550;DHT22;45572;48.804;8.330;2023-02-19T06:53:34;9.70;94.20
3550;DHT22;45572;48.804;8.330;2023-02-19T06:56:04;9.70;94.60
3550;DHT22;45572;48.804;8.330;2023-02-19T06:58:33;9.60;94.90
3550;DHT22;45572;48.804;8.330;2023-02-19T07:01:00;9.60;94.80
3550;DHT22;45572;48.804;8.330;2023-02-19T07:03:28;9.70;94.50
3550;DHT22;45572;48.804;8.330;2023-02-19T07:05:58;9.70;94.60
3550;DHT22;45572;48.804;8.330;2023-02-19T07:08:30;9.80;94.90
3550;DHT22;45572;48.804;8.330;2023-02-19T07:10:58;9.80;94.80
3550;DHT22;45572;48.804;8.330;2023-02-19T07:13:26;9.80;94.50
3550;DHT22;45572;48.804;8.330;2023-02-19T07:15:57;9.80;94.50
3550;DHT22;45572;48.804;8.330;2023-02-19T07:18:26;9.80;94.20
3550;DHT22;45572;48.804;8.330;2023-02-19T07:20:54;9.80;93.70
3550;DHT22;45572;48.804;8.330;2023-02-19T07:23:21;9.80;94.00
3550;DHT22;45572;48.804;8.330;2023-02-19T07:25:50;9.80;94.20
3550;DHT22;45572;48.804;8.330;2023-02-19T07:28:18;9.80;94.60
3550;DHT22;45572;48.804;8.330;2023-02-19T07:30:46;9.80;95.10
3550;DHT22;45572;48.804;8.330;2023-02-19T07:33:14;9.80;95.50
3550;DHT22;45572;48.804;8.330;2023-02-19T07:35:45;9.80;95.90
3550;DHT22;45572;48.804;8.330;2023-02-19T07:38:14;9.90;95.90
3550;DHT22;45572;48.804;8.330;2023-02-19T07:40:51;9.80;95.90
3550;DHT22;45572;48.804;8.330;2023-02-19T07:43:19;9.80;95.90
3550;DHT22;45572;48.804;8.330;2023-02-19T07:45:47;9.70;95.70
3550;DHT22;45572;48.804;8.330;2023-02-19T07:48:15;9.70;96.00
3550;DHT22;45572;48.804;8.330;2023-02-19T07:50:50;9.80;95.90
3550;DHT22;45572;48.804;8.330;2023-02-19T07:53:17;9.80;95.70
3550;DHT22;45572;48.804;8.330;2023-02-19T07:55:45;9.90;95.70
3550;DHT22;45572;48.804;8.330;2023-02-19T07:58:15;9.90;95.40
3550;DHT22;45572;48.804;8.330;2023-02-19T08:00:43;9.80;94.90
3550;DHT22;45572;48.804;8.330;2023-02-19T08:03:10;9.90;95.30
3550;DHT22;45572;48.804;8.330;2023-02-19T08:05:40;10.00;95.50
3550;DHT22;45572;48.804;8.330;2023-02-19T08:08:11;10.00;95.10
3550;DHT22;45572;48.804;8.330;2023-02-19T08:10:40;10.00;94.60
3550;DHT22;45572;48.804;8.330;2023-02-19T08:13:24;9.90;94.20
3550;DHT22;45572;48.804;8.330;2023-02-19T08:15:54;9.90;94.20
3550;DHT22;45572;48.804;8.330;2023-02-19T08:18:40;9.90;93.90
3550;DHT22;45572;48.804;8.330;2023-02-19T08:21:08;9.90;94.20
3550;DHT22;45572;48.804;8.330;2023-02-19T08:23:37;9.90;94.20
3550;DHT22;45572;48.804;8.330;2023-02-19T08:26:05;10.00;93.80
3550;DHT22;45572;48.804;8.330;2023-02-19T08:28:35;10.10;93.50
3550;DHT22;45572;48.804;8.330;2023-02-19T08:31:05;10.10;93.50
3550;DHT22;45572;48.804;8.330;2023-02-19T08:33:33;10.20;93.60
3550;DHT22;45572;48.804;8.330;2023-02-19T08:36:02;10.20;93.00
3550;DHT22;45572;48.804;8.330;2023-02-19T08:38:31;10.20;93.30
3550;DHT22;45572;48.804;8.330;2023-02-19T08:41:04;10.20;92.60
3550;DHT22;45572;48.804;8.330;2023-02-19T08:43:32;10.20;92.70
3550;DHT22;45572;48.804;8.330;2023-02-19T08:46:02;10.20;93.00
3550;DHT22;45572;48.804;8.330;2023-02-19T08:48:29;10.20;92.70
3550;DHT22;45572;48.804;8.330;2023-02-19T08:50:59;10.30;92.70
3550;DHT22;45572;48.804;8.330;2023-02-19T08:53:30;10.30;93.00
3550;DHT22;45572;48.804;8.330;2023-02-19T08:56:00;10.40;92.90
3550;DHT22;45572;48.804;8.330;2023-02-19T08:58:30;10.40;92.60
3550;DHT22;45572;48.804;8.330;2023-02-19T09:00:59;10.30;92.20
3550;DHT22;45572;48.804;8.330;2023-02-19T09:03:28;10.40;92.10
3550;DHT22;45572;48.804;8.330;2023-02-19T09:05:55;10.40;92.30
3550;DHT22;45572;48.804;8.330;2023-02-19T09:08:23;10.40;92.50
3550;DHT22;45572;48.804;8.330;2023-02-19T09:10:59;10.40;91.90
3550;DHT22;45572;48.804;8.330;2023-02-19T09:13:27;10.40;92.10
3550;DHT22;45572;48.804;8.330;2023-02-19T09:15:55;10.50;91.90
3550;DHT22;45572;48.804;8.330;2023-02-19T09:18:23;10.50;92.10
3550;DHT22;45572;48.804;8.330;2023-02-19T09:20:52;10.50;91.60
3550;DHT22;45572;48.804;8.330;2023-02-19T09:23:20;10.50;91.60
3550;DHT22;45572;48.804;8.330;2023-02-19T09:25:47;10.50;92.00
3550;DHT22;45572;48.804;8.330;2023-02-19T09:28:15;10.50;91.60
3550;DHT22;45572;48.804;8.330;2023-02-19T09:30:43;10.60;91.00
3550;DHT22;45572;48.804;8.330;2023-02-19T09:33:11;10.60;91.40
3550;DHT22;45572;48.804;8.330;2023-02-19T09:35:39;10.50;91.10
3550;DHT22;45572;48.804;8.330;2023-02-19T09:38:08;10.50;91.30
3550;DHT22;45572;48.804;8.330;2023-02-19T09:40:37;10.50;91.40
3550;DHT22;45572;48.804;8.330;2023-02-19T09:43:06;10.40;91.90
3550;DHT22;45572;48.804;8.330;2023-02-19T09:45:35;10.50;91.90
3550;DHT22;45572;48.804;8.330;2023-02-19T09:48:04;10.60;91.60
3550;DHT22;45572;48.804;8.330;2023-02-19T09:50:35;10.70;91.60
3550;DHT22;45572;48.804;8.330;2023-02-19T09:53:09;10.80;90.50
3550;DHT22;45572;48.804;8.330;2023-02-19T09:55:42;10.80;90.90
3550;DHT22;45572;48.804;8.330;2023-02-19T09:58:20;10.90;90.40
3550;DHT22;45572;48.804;8.330;2023-02-19T10:00:51;10.90;90.50
3550;DHT22;45572;48.804;8.330;2023-02-19T10:03:22;11.00;90.00
3550;DHT22;45572;48.804;8.330;2023-02-19T10:05:58;11.00;89.30
3550;DHT22;45572;48.804;8.330;2023-02-19T10:08:30;11.10;89.70
3550;DHT22;45572;48.804;8.330;2023-02-19T10:11:01;11.10;89.30
3550;DHT22;45572;48.804;8.330;2023-02-19T10:13:32;11.10;88.90
3550;DHT22;45572;48.804;8.330;2023-02-19T10:16:03;11.30;88.80
3550;DHT22;45572;48.804;8.330;2023-02-19T10:18:37;11.30;88.50
3550;DHT22;45572;48.804;8.330;2023-02-19T10:21:07;11.40;88.20
3550;DHT22;45572;48.804;8.330;2023-02-19T10:23:36;11.50;88.10
3550;DHT22;45572;48.804;8.330;2023-02-19T10:26:06;11.60;87.80
3550;DHT22;45572;48.804;8.330;2023-02-19T10:28:35;11.60;87.50
3550;DHT22;45572;48.804;8.330;2023-02-19T10:31:10;11.60;87.70
3550;DHT22;45572;48.804;8.330;2023-02-19T10:33:48;11.60;87.20
3550;DHT22;45572;48.804;8.330;2023-02-19T10:36:24;11.60;87.30
3550;DHT22;45572;48.804;8.330;2023-02-19T10:38:57;11.70;87.60
3550;DHT22;45572;48.804;8.330;2023-02-19T10:41:27;11.80;87.20
3550;DHT22;45572;48.804;8.330;2023-02-19T10:44:00;11.70;86.60
3550;DHT22;45572;48.804;8.330;2023-02-19T10:46:32;11.60;87.20
3550;DHT22;45572;48.804;8.330;2023-02-19T10:49:03;11.60;86.80
3550;DHT22;45572;48.804;8.330;2023-02-19T10:51:34;11.60;87.60
3550;DHT22;45572;48.804;8.330;2023-02-19T10:54:04;11.70;87.10
3550;DHT22;45572;48.804;8.330;2023-02-19T10:56:35;11.60;86.90
3550;DHT22;45572;48.804;8.330;2023-02-19T10:59:17;11.60;87.60
3550;DHT22;45572;48.804;8.330;2023-02-19T11:01:56;11.70;87.40
3550;DHT22;45572;48.804;8.330;2023-02-19T11:04:26;11.70;86.70
3550;DHT22;45572;48.804;8.330;2023-02-19T11:06:55;11.70;86.50
3550;DHT22;45572;48.804;8.330;2023-02-19T11:09:27;11.70;87.00
3550;DHT22;45572;48.804;8.330;2023-02-19T11:11:57;11.70;86.60
3550;DHT22;45572;48.804;8.330;2023-02-19T11:14:25;11.70;87.10
3550;DHT22;45572;48.804;8.330;2023-02-19T11:16:56;11.60;85.80
3550;DHT22;45572;48.804;8.330;2023-02-19T11:19:27;11.60;86.80
3550;DHT22;45572;48.804;8.330;2023-02-19T11:21:57;11.60;86.90
3550;DHT22;45572;48.804;8.330;2023-02-19T11:24:29;11.60;86.60
3550;DHT22;45572;48.804;8.330;2023-02-19T11:27:03;11.60;86.80
3550;DHT22;45572;48.804;8.330;2023-02-19T11:29:33;11.70;87.10
3550;DHT22;45572;48.804;8.330;2023-02-19T11:32:24;11.70;86.20
3550;DHT22;45572;48.804;8.330;2023-02-19T11:35:14;11.70;85.30
3550;DHT22;45572;48.804;8.330;2023-02-19T11:37:55;11.70;85.20
3550;DHT22;45572;48.804;8.330;2023-02-19T11:40:32;11.60;84.50
3550;DHT22;45572;48.804;8.330;2023-02-19T11:43:09;11.60;84.70
3550;DHT22;45572;48.804;8.330;2023-02-19T11:45:43;11.80;85.00
3550;DHT22;45572;48.804;8.330;2023-02-19T11:48:26;11.70;83.40
3550;DHT22;45572;48.804;8.330;2023-02-19T11:51:05;11.80;84.20
3550;DHT22;45572;48.804;8.330;2023-02-19T11:53:42;11.80;84.00
3550;DHT22;45572;48.804;8.330;2023-02-19T11:56:17;11.90;84.10
3550;DHT22;45572;48.804;8.330;2023-02-19T11:58:59;12.10;84.30
3550;DHT22;45572;48.804;8.330;2023-02-19T12:01:47;12.20;83.70
3550;DHT22;45572;48.804;8.330;2023-02-19T12:04:51;12.30;83.70
3550;DHT22;45572;48.804;8.330;2023-02-19T12:07:36;12.30;84.10
3550;DHT22;45572;48.804;8.330;2023-02-19T12:10:12;12.40;83.50
3550;DHT22;45572;48.804;8.330;2023-02-19T12:12:54;12.40;83.20
3550;DHT22;45572;48.804;8.330;2023-02-19T12:15:34;12.60;83.40
3550;DHT22;45572;48.804;8.330;2023-02-19T12:18:18;12.80;83.20
3550;DHT22;45572;48.804;8.330;2023-02-19T12:20:57;12.80;82.10
3550;DHT22;45572;48.804;8.330;2023-02-19T12:23:42;12.80;80.70
3550;DHT22;45572;48.804;8.330;2023-02-19T12:26:19;12.90;81.30
3550;DHT22;45572;48.804;8.330;2023-02-19T12:29:07;12.90;81.00
3550;DHT22;45572;48.804;8.330;2023-02-19T12:32:00;12.90;81.40
3550;DHT22;45572;48.804;8.330;2023-02-19T12:34:48;13.00;80.50
3550;DHT22;45572;48.804;8.330;2023-02-19T12:37:30;13.00;81.10
3550;DHT22;45572;48.804;8.330;2023-02-19T12:40:15;13.00;80.30
3550;DHT22;45572;48.804;8.330;2023-02-19T12:42:53;13.00;80.00
3550;DHT22;45572;48.804;8.330;2023-02-19T12:45:28;13.00;80.40
3550;DHT22;45572;48.804;8.330;2023-02-19T12:48:04;13.30;79.90
3550;DHT22;45572;48.804;8.330;2023-02-19T12:50:34;13.30;78.90
3550;DHT22;45572;48.804;8.330;2023-02-19T12:53:13;13.40;79.20
3550;DHT22;45572;48.804;8.330;2023-02-19T12:55:44;13.60;79.00
3550;DHT22;45572;48.804;8.330;2023-02-19T12:58:23;13.70;78.30
3550;DHT22;45572;48.804;8.330;2023-02-19T13:00:54;13.50;77.50
3550;DHT22;45572;48.804;8.330;2023-02-19T13:03:31;13.40;77.80
3550;DHT22;45572;48.804;8.330;2023-02-19T13:06:04;13.50;77.90
3550;DHT22;45572;48.804;8.330;2023-02-19T13:08:39;13.50;77.60
3550;DHT22;45572;48.804;8.330;2023-02-19T13:11:32;13.40;76.70
3550;DHT22;45572;48.804;8.330;2023-02-19T13:14:04;13.20;77.30
3550;DHT22;45572;48.804;8.330;2023-02-19T13:16:39;13.10;77.50
3550;DHT22;45572;48.804;8.330;2023-02-19T13:19:12;13.20;79.50
3550;DHT22;45572;48.804;8.330;2023-02-19T13:21:41;13.20;77.10
3550;DHT22;45572;48.804;8.330;2023-02-19T13:24:27;13.20;77.50
3550;DHT22;45572;48.804;8.330;2023-02-19T13:27:07;13.10;77.40
3550;DHT22;45572;48.804;8.330;2023-02-19T13:29:53;13.20;78.50
3550;DHT22;45572;48.804;8.330;2023-02-19T13:32:33;13.20;77.80
3550;DHT22;45572;48.804;8.330;2023-02-19T13:35:25;13.00;77.30
3550;DHT22;45572;48.804;8.330;2023-02-19T13:37:54;13.00;77.40
3550;DHT22;45572;48.804;8.330;2023-02-19T13:40:30;13.00;77.40
3550;DHT22;45572;48.804;8.330;2023-02-19T13:43:00;13.10;76.60
3550;DHT22;45572;48.804;8.330;2023-02-19T13:45:33;13.10;77.00
3550;DHT22;45572;48.804;8.330;2023-02-19T13:48:13;13.10;76.40
3550;DHT22;45572;48.804;8.330;2023-02-19T13:50:43;13.00;77.40
3550;DHT22;45572;48.804;8.330;2023-02-19T13:59:24;12.60;78.40
3550;DHT22;45572;48.804;8.330;2023-02-19T14:02:09;12.50;79.50
3550;DHT22;45572;48.804;8.330;2023-02-19T14:04:43;12.50;79.90
3550;DHT22;45572;48.804;8.330;2023-02-19T14:07:46;12.60;80.00
3550;DHT22;45572;48.804;8.330;2023-02-19T14:10:50;12.60;79.70
3550;DHT22;45572;48.804;8.330;2023-02-19T14:16:29;12.50;80.70
3550;DHT22;45572;48.804;8.330;2023-02-19T14:18:57;12.50;80.90
3550;DHT22;45572;48.804;8.330;2023-02-19T14:21:33;12.40;81.20
3550;DHT22;45572;48.804;8.330;2023-02-19T14:24:04;12.50;81.80
3550;DHT22;45572;48.804;8.330;2023-02-19T14:26:33;12.50;81.40
3550;DHT22;45572;48.804;8.330;2023-02-19T14:29:01;12.50;81.50
3550;DHT22;45572;48.804;8.330;2023-02-19T14:31:30;12.50;81.70
3550;DHT22;45572;48.804;8.330;2023-02-19T14:34:05;12.70;82.00
3550;DHT22;45572;48.804;8.330;2023-02-19T14:36:38;12.60;81.00
3550;DHT22;45572;48.804;8.330;2023-02-19T14:39:14;12.60;81.00
3550;DHT22;45572;48.804;8.330;2023-02-19T14:41:45;12.60;81.80
3550;DHT22;45572;48.804;8.330;2023-02-19T14:44:17;12.50;81.70
3550;DHT22;45572;48.804;8.330;2023-02-19T14:46:50;12.50;81.40
3550;DHT22;45572;48.804;8.330;2023-02-19T14:49:25;12.40;82.30
3550;DHT22;45572;48.804;8.330;2023-02-19T14:51:56;12.30;83.40
3550;DHT22;45572;48.804;8.330;2023-02-19T14:54:36;12.20;84.20
3550;DHT22;45572;48.804;8.330;2023-02-19T14:57:11;12.00;84.70
3550;DHT22;45572;48.804;8.330;2023-02-19T14:59:51;11.90;85.80
3550;DHT22;45572;48.804;8.330;2023-02-19T15:02:19;11.80;87.00
3550;DHT22;45572;48.804;8.330;2023-02-19T15:04:49;11.60;87.90
3550;DHT22;45572;48.804;8.330;2023-02-19T15:07:19;11.50;88.60
3550;DHT22;45572;48.804;8.330;2023-02-19T15:09:52;11.50;89.10
3550;DHT22;45572;48.804;8.330;2023-02-19T15:12:24;11.50;89.20
3550;DHT22;45572;48.804;8.330;2023-02-19T15:14:54;11.50;89.20
3550;DHT22;45572;48.804;8.330;2023-02-19T15:17:25;11.40;88.90
3550;DHT22;45572;48.804;8.330;2023-02-19T15:19:54;11.40;89.30
3550;DHT22;45572;48.804;8.330;2023-02-19T15:22:24;11.50;89.30
3550;DHT22;45572;48.804;8.330;2023-02-19T15:24:55;11.60;89.60
3550;DHT22;45572;48.804;8.330;2023-02-19T15:27:23;11.70;89.40
3550;DHT22;45572;48.804;8.330;2023-02-19T15:29:52;11.70;89.40
3550;DHT22;45572;48.804;8.330;2023-02-19T15:32:21;11.60;89.20
3550;DHT22;45572;48.804;8.330;2023-02-19T15:34:54;11.80;89.20
3550;DHT22;45572;48.804;8.330;2023-02-19T15:37:23;11.80;89.50
3550;DHT22;45572;48.804;8.330;2023-02-19T15:39:52;11.90;89.40
3550;DHT22;45572;48.804;8.330;2023-02-19T15:42:25;11.90;88.90
3550;DHT22;45572;48.804;8.330;2023-02-19T15:44:56;11.90;88.80
3550;DHT22;45572;48.804;8.330;2023-02-19T15:47:31;12.00;88.60
3550;DHT22;45572;48.804;8.330;2023-02-19T15:50:05;11.80;88.00
3550;DHT22;45572;48.804;8.330;2023-02-19T15:52:41;11.60;89.00
3550;DHT22;45572;48.804;8.330;2023-02-19T15:55:21;11.50;88.50
3550;DHT22;45572;48.804;8.330;2023-02-19T15:57:56;11.40;88.70
3550;DHT22;45572;48.804;8.330;2023-02-19T16:00:31;11.40;89.10
3550;DHT22;45572;48.804;8.330;2023-02-19T16:03:00;11.30;88.80
3550;DHT22;45572;48.804;8.330;2023-02-19T16:05:29;11.40;89.30
3550;DHT22;45572;48.804;8.330;2023-02-19T16:08:16;11.50;89.20
3550;DHT22;45572;48.804;8.330;2023-02-19T16:10:54;11.40;88.90
3550;DHT22;45572;48.804;8.330;2023-02-19T16:13:24;11.30;88.70
3550;DHT22;45572;48.804;8.330;2023-02-19T16:15:57;11.20;88.30
3550;DHT22;45572;48.804;8.330;2023-02-19T16:18:25;11.20;87.60
3550;DHT22;45572;48.804;8.330;2023-02-19T16:20:53;11.20;87.90
3550;DHT22;45572;48.804;8.330;2023-02-19T16:23:21;11.10;85.90
3550;DHT22;45572;48.804;8.330;2023-02-19T16:25:57;11.00;86.00
3550;DHT22;45572;48.804;8.330;2023-02-19T16:28:31;11.00;86.50
3550;DHT22;45572;48.804;8.330;2023-02-19T16:31:04;11.00;86.50
3550;DHT22;45572;48.804;8.330;2023-02-19T16:33:36;10.90;85.70
3550;DHT22;45572;48.804;8.330;2023-02-19T16:36:21;10.90;85.70